Rivas, Nicaragua
Current Conditions -  °F | °C
As of 11:00 AM on Saturday 22 Nov 2014 (Local Time) from MNMG Reporting Station
Scattered Clouds Scattered Clouds  
Wind Chill: 86°   Ceiling: Unl
Heat Index: 92°   Visibility: 6mi
Dew Point: 72°   Wind: 12mph
Humidity: 62%   Direction: 90°E
Pressure: 29.88"   Gusts: NA
Location:  11.44°N, 85.82°W
Report Text: MNMG 221700Z 09010KT 9999 SCT024 30/22 Q1012 A2990 NOSIG
Loading
Personal Weather Stations






























Interactive Weather Map New forecast layout! Learn more

10-Day Weather Forecast

Advertisements
Track Severe Weather on mobile